Time;durP1;ratioP1;P1;durP2;ratioP2;P2;SDS_P1;SDS_P2;PMS_P1;PMS_P2;Temp;Humidity;BMP_temperature;BMP_pressure;BME280_temperature;BME280_humidity;BME280_pressure;Samples;Min_cycle;Max_cycle;Signal;HPM_P1;HPM_P2
2022/04/06 00:01:54;;;;;;;11.75;9.57;;;;;;;13.35;65.07;99694.56;5001597;28;99402;-71
2022/04/06 00:04:20;;;;;;;13.90;10.13;;;;;;;13.11;66.10;99688.13;5008963;28;96783;-72
2022/04/06 00:06:48;;;;;;;11.75;9.80;;;;;;;13.37;65.20;99691.84;5002970;28;97699;-71
2022/04/06 00:09:15;;;;;;;13.07;9.50;;;;;;;12.78;67.21;99685.78;4999279;28;99038;-71
2022/04/06 00:11:41;;;;;;;10.93;9.60;;;;;;;13.07;66.53;99695.41;4996142;28;97842;-70
2022/04/06 00:14:08;;;;;;;10.85;9.07;;;;;;;12.92;67.24;99703.50;5000593;28;98980;-70
2022/04/06 00:16:34;;;;;;;10.68;9.35;;;;;;;12.76;67.54;99703.56;4994353;28;97373;-71
2022/04/06 00:19:01;;;;;;;11.77;8.95;;;;;;;12.91;67.12;99704.44;5000541;28;99665;-70
2022/04/06 00:21:28;;;;;;;9.80;8.80;;;;;;;13.12;66.84;99711.94;5001728;28;98890;-72
2022/04/06 00:23:56;;;;;;;11.55;8.57;;;;;;;13.08;66.96;99697.13;4999875;28;96874;-71
2022/04/06 00:26:28;;;;;;;12.57;8.80;;;;;;;13.27;65.85;99701.31;5004296;28;96817;-71
2022/04/06 00:28:54;;;;;;;9.55;8.30;;;;;;;13.24;66.46;99697.06;4999215;28;97687;-71
2022/04/06 00:31:21;;;;;;;9.40;8.40;;;;;;;13.33;66.15;99695.59;4998654;28;99046;-72
2022/04/06 00:33:48;;;;;;;11.63;8.80;;;;;;;12.11;70.43;99707.47;5002091;28;96908;-72
2022/04/06 00:36:14;;;;;;;10.05;7.93;;;;;;;12.74;68.38;99703.66;5000529;28;96863;-71
2022/04/06 00:38:41;;;;;;;8.82;7.90;;;;;;;13.26;66.76;99694.31;4997027;28;98485;-72
2022/04/06 00:41:12;;;;;;;10.98;9.00;;;;;;;13.09;67.30;99701.50;4997317;28;97402;-71
2022/04/06 00:43:39;;;;;;;11.75;9.70;;;;;;;12.95;68.05;99700.63;5001458;28;97829;-70
2022/04/06 00:46:05;;;;;;;11.20;8.43;;;;;;;13.35;66.46;99699.88;4997908;28;96853;-70
2022/04/06 00:48:32;;;;;;;10.02;8.98;;;;;;;13.35;66.27;99691.94;4998091;28;101858;-70
2022/04/06 00:50:59;;;;;;;12.45;10.18;;;;;;;13.29;66.21;99697.63;4997602;28;98826;-70
2022/04/06 00:53:27;;;;;;;12.75;10.32;;;;;;;13.13;66.99;99700.38;4998900;28;96997;-70
2022/04/06 00:55:54;;;;;;;13.25;10.43;;;;;;;13.23;66.76;99694.50;5004570;28;97802;-70
2022/04/06 00:58:22;;;;;;;13.88;11.02;;;;;;;13.10;66.89;99689.94;5001394;28;99578;-70
2022/04/06 01:00:48;;;;;;;12.85;10.95;;;;;;;13.41;65.87;99693.34;5000426;28;98799;-70
2022/04/06 01:03:15;;;;;;;14.65;11.48;;;;;;;13.32;66.23;99692.13;5000637;28;98858;-70
2022/04/06 01:05:43;;;;;;;15.55;10.90;;;;;;;13.48;65.48;99699.94;5005247;28;97197;-69
2022/04/06 01:08:11;;;;;;;16.27;11.75;;;;;;;13.29;66.26;99688.81;5003199;28;99178;-70
2022/04/06 01:10:40;;;;;;;13.05;11.00;;;;;;;12.99;67.66;99687.09;4997038;28;100513;-71
2022/04/06 01:13:07;;;;;;;14.07;11.77;;;;;;;13.44;65.81;99695.81;5001029;28;96790;-72
2022/04/06 01:15:35;;;;;;;15.40;11.95;;;;;;;13.48;65.87;99694.66;5001699;28;98407;-69
2022/04/06 01:18:02;;;;;;;14.63;11.32;;;;;;;13.79;64.67;99688.19;4998401;28;99266;-70
2022/04/06 01:20:29;;;;;;;13.65;11.32;;;;;;;13.50;65.19;99684.78;5003480;28;101632;-70
2022/04/06 01:22:57;;;;;;;13.98;11.43;;;;;;;13.71;64.77;99685.22;5001862;28;96953;-72
2022/04/06 01:25:26;;;;;;;13.80;11.40;;;;;;;13.39;65.86;99688.13;4997850;28;97066;-70
2022/04/06 01:27:53;;;;;;;15.70;11.80;;;;;;;13.69;64.61;99682.66;4989592;28;102182;-71
2022/04/06 01:30:19;;;;;;;14.02;11.52;;;;;;;13.62;65.04;99691.09;5002966;28;101071;-70
2022/04/06 01:32:46;;;;;;;15.85;12.57;;;;;;;13.71;64.54;99686.06;4988608;28;97218;-72
2022/04/06 01:35:13;;;;;;;14.95;11.80;;;;;;;13.62;64.83;99681.34;5001143;28;96959;-71
2022/04/06 01:37:39;;;;;;;15.48;11.65;;;;;;;13.71;64.46;99686.06;4994871;28;99933;-70
2022/04/06 01:40:08;;;;;;;13.68;11.38;;;;;;;13.45;65.25;99681.59;5001069;28;98352;-70
2022/04/06 01:42:35;;;;;;;14.80;11.63;;;;;;;13.55;65.15;99680.88;4996323;28;97215;-68
2022/04/06 01:45:01;;;;;;;14.10;11.85;;;;;;;13.41;65.78;99688.03;4997808;28;96824;-70
2022/04/06 01:47:28;;;;;;;15.13;12.05;;;;;;;13.48;65.40;99689.34;4995686;28;97816;-71
2022/04/06 01:52:43;;;;;;;13.98;11.77;;;;;;;13.70;64.64;99678.19;4911421;28;97032;-71
2022/04/06 01:55:13;;;;;;;16.55;12.30;;;;;;;13.57;65.13;99688.75;4999541;28;96944;-70
2022/04/06 01:57:40;;;;;;;15.27;11.88;;;;;;;13.49;65.24;99683.09;5002786;28;96994;-71
2022/04/06 02:00:10;;;;;;;17.63;12.50;;;;;;;13.58;65.35;99685.16;5001286;28;101311;-72
2022/04/06 02:02:38;;;;;;;14.18;11.80;;;;;;;13.57;65.40;99684.31;5005525;28;96815;-70
2022/04/06 02:05:05;;;;;;;14.32;12.23;;;;;;;13.37;65.83;99684.72;5000653;28;96794;-71
2022/04/06 02:07:31;;;;;;;16.52;12.90;;;;;;;13.52;65.29;99691.69;5000799;28;98216;-70
2022/04/06 02:10:00;;;;;;;13.80;12.13;;;;;;;13.37;65.98;99679.41;4994285;28;99662;-69
2022/04/06 02:12:29;;;;;;;15.75;12.50;;;;;;;13.52;65.19;99688.22;5000616;28;96744;-69
2022/04/06 02:14:57;;;;;;;16.80;13.25;;;;;;;13.60;64.94;99682.38;4997346;28;96876;-70
2022/04/06 02:17:23;;;;;;;13.80;11.85;;;;;;;13.67;64.73;99675.72;4994946;28;98059;-71
2022/04/06 02:19:50;;;;;;;14.82;12.15;;;;;;;13.32;65.33;99668.25;5004276;28;98829;-70
2022/04/06 02:22:18;;;;;;;16.13;12.52;;;;;;;13.49;65.34;99680.44;5002818;28;97241;-72
2022/04/06 02:24:44;;;;;;;15.57;12.07;;;;;;;13.52;65.01;99674.94;5000648;28;97243;-70
2022/04/06 02:27:11;;;;;;;14.85;12.15;;;;;;;13.63;64.57;99669.78;4998805;28;99674;-71
2022/04/06 02:29:39;;;;;;;13.18;11.77;;;;;;;13.60;64.85;99677.94;4999467;28;98023;-70
2022/04/06 02:32:07;;;;;;;13.02;11.60;;;;;;;13.32;65.64;99670.06;4998116;28;96980;-71
2022/04/06 02:34:34;;;;;;;13.82;11.60;;;;;;;13.26;65.51;99668.63;5006567;28;97156;-71
2022/04/06 02:37:01;;;;;;;15.18;12.75;;;;;;;13.26;66.09;99673.91;5004860;28;97849;-71
2022/04/06 02:39:28;;;;;;;13.60;11.93;;;;;;;13.11;66.19;99670.44;4998604;28;102329;-69
2022/04/06 02:41:55;;;;;;;16.90;13.07;;;;;;;13.24;65.61;99664.38;5000257;28;97584;-71
2022/04/06 02:44:21;;;;;;;19.80;12.10;;;;;;;13.38;65.13;99657.25;4999078;28;97138;-71
2022/04/06 02:46:49;;;;;;;14.07;12.32;;;;;;;13.62;64.14;99668.06;5002639;28;101578;-71
2022/04/06 02:49:16;;;;;;;14.57;12.55;;;;;;;13.45;64.72;99660.34;4998559;28;99304;-70
2022/04/06 02:51:46;;;;;;;15.38;11.98;;;;;;;13.43;64.66;99656.94;5000342;28;98908;-70
2022/04/06 02:54:12;;;;;;;13.82;11.93;;;;;;;13.38;64.98;99659.06;4995700;28;98352;-71
2022/04/06 02:56:39;;;;;;;13.82;12.15;;;;;;;13.55;64.38;99658.81;4992814;28;100916;-71
2022/04/06 02:59:06;;;;;;;14.82;11.80;;;;;;;13.10;65.67;99665.22;4992775;28;99118;-71
2022/04/06 03:01:32;;;;;;;16.33;11.93;;;;;;;13.57;64.07;99659.56;4997972;28;96754;-70
2022/04/06 03:04:00;;;;;;;13.10;11.70;;;;;;;13.36;64.70;99666.25;4998978;28;96936;-72
2022/04/06 03:06:27;;;;;;;13.93;11.35;;;;;;;13.53;64.11;99660.69;5000240;28;98774;-71
2022/04/06 03:08:55;;;;;;;13.85;11.32;;;;;;;13.61;63.34;99658.41;4995886;28;99188;-70
2022/04/06 03:11:22;;;;;;;14.80;12.00;;;;;;;13.46;64.02;99662.91;4999295;28;96737;-71
2022/04/06 03:13:50;;;;;;;14.25;11.65;;;;;;;13.22;64.50;99672.41;4999160;28;96896;-70
2022/04/06 03:16:17;;;;;;;13.13;11.43;;;;;;;13.47;63.52;99666.41;5005075;28;98945;-70
2022/04/06 03:18:43;;;;;;;15.93;11.75;;;;;;;13.49;63.39;99665.38;4999953;28;99162;-71
2022/04/06 03:21:11;;;;;;;14.43;10.93;;;;;;;13.50;63.41;99667.06;5001924;28;97008;-71
2022/04/06 03:23:38;;;;;;;14.48;10.38;;;;;;;13.53;63.09;99668.66;4995370;28;96824;-70
2022/04/06 03:26:04;;;;;;;13.43;10.15;;;;;;;12.98;64.46;99669.50;4996751;28;98848;-69
2022/04/06 03:28:31;;;;;;;15.38;10.90;;;;;;;13.27;64.16;99669.47;4997708;28;99009;-70
2022/04/06 03:30:57;;;;;;;14.48;10.20;;;;;;;13.52;63.09;99665.16;4996223;28;97321;-70
2022/04/06 03:33:24;;;;;;;13.43;10.20;;;;;;;13.27;63.67;99669.47;5003148;28;98839;-70
2022/04/06 03:35:51;;;;;;;12.55;10.27;;;;;;;13.38;63.55;99664.34;5000212;28;99217;-70
2022/04/06 03:38:20;;;;;;;13.63;10.43;;;;;;;13.45;63.45;99673.63;4996821;28;99005;-70
2022/04/06 03:40:46;;;;;;;13.32;9.82;;;;;;;13.48;63.30;99676.06;5002267;28;96885;-71
2022/04/06 03:43:12;;;;;;;13.05;10.30;;;;;;;13.06;64.71;99671.66;4993468;28;98563;-69
2022/04/06 03:45:39;;;;;;;13.02;10.52;;;;;;;13.31;63.90;99671.84;4998438;28;98873;-70
2022/04/06 03:48:06;;;;;;;16.17;10.25;;;;;;;13.47;63.48;99671.72;5009250;28;99231;-70
2022/04/06 03:50:33;;;;;;;12.23;9.43;;;;;;;13.33;64.09;99666.44;5001850;28;98728;-70
2022/04/06 03:52:59;;;;;;;11.23;9.35;;;;;;;13.35;63.90;99669.84;5000470;28;97161;-69
2022/04/06 03:55:27;;;;;;;12.63;9.38;;;;;;;13.14;64.52;99666.75;4996581;28;100305;-70
2022/04/06 03:57:54;;;;;;;14.07;9.43;;;;;;;12.86;65.29;99664.94;5007553;28;97706;-70
2022/04/06 04:00:20;;;;;;;13.15;9.50;;;;;;;13.33;64.14;99664.63;4998303;28;96758;-69
2022/04/06 04:02:47;;;;;;;15.35;10.02;;;;;;;13.36;63.68;99668.91;5009839;28;97275;-70
2022/04/06 04:05:14;;;;;;;15.95;9.73;;;;;;;13.26;63.66;99667.78;5001753;28;99340;-69
2022/04/06 04:07:40;;;;;;;15.70;9.27;;;;;;;13.16;64.22;99670.16;5003454;28;103095;-70
2022/04/06 04:10:09;;;;;;;16.48;9.05;;;;;;;13.41;63.33;99677.41;4998404;28;97591;-70
2022/04/06 04:12:38;;;;;;;16.23;9.48;;;;;;;13.16;64.00;99678.97;5001736;28;96881;-70
2022/04/06 04:15:06;;;;;;;13.00;8.35;;;;;;;13.34;63.67;99670.78;5004101;28;97819;-71
2022/04/06 04:17:32;;;;;;;13.95;9.23;;;;;;;13.26;63.65;99678.41;5002825;28;98008;-72
2022/04/06 04:19:59;;;;;;;11.63;8.80;;;;;;;12.96;64.84;99681.97;5002030;28;97392;-71
2022/04/06 04:22:25;;;;;;;15.57;8.88;;;;;;;13.35;63.34;99683.97;5004303;28;97434;-70
2022/04/06 04:24:52;;;;;;;17.20;8.80;;;;;;;13.35;63.23;99678.66;5000214;28;99022;-71
2022/04/06 04:27:18;;;;;;;14.60;8.30;;;;;;;13.09;63.61;99680.28;4999334;28;99078;-70
2022/04/06 04:29:46;;;;;;;16.17;9.32;;;;;;;13.06;64.23;99685.75;5000390;28;96693;-70
2022/04/06 04:32:14;;;;;;;15.52;9.35;;;;;;;13.26;63.33;99687.19;5007999;28;96807;-69
2022/04/06 04:34:41;;;;;;;15.38;9.02;;;;;;;13.30;63.21;99691.38;5003315;28;99435;-70
2022/04/06 04:37:07;;;;;;;17.02;9.77;;;;;;;13.36;62.67;99695.44;5001649;28;99763;-70
2022/04/06 04:39:34;;;;;;;14.75;9.77;;;;;;;13.41;62.62;99698.63;4997558;28;96896;-70
2022/04/06 04:42:00;;;;;;;16.08;9.75;;;;;;;13.15;63.61;99697.63;5001692;28;96747;-70
2022/04/06 04:44:27;;;;;;;17.55;10.30;;;;;;;13.27;63.23;99701.31;4996619;28;101328;-70
2022/04/06 04:46:55;;;;;;;14.88;9.70;;;;;;;13.24;63.15;99698.88;5001497;28;98804;-72
2022/04/06 04:49:21;;;;;;;13.88;9.80;;;;;;;13.20;63.34;99700.84;5000413;28;97097;-70
2022/04/06 04:51:48;;;;;;;22.50;10.35;;;;;;;13.20;63.28;99692.03;4999670;28;98812;-72
2022/04/06 04:54:14;;;;;;;17.90;9.73;;;;;;;13.41;62.60;99704.78;4999105;28;101930;-73
2022/04/06 04:56:42;;;;;;;17.88;10.98;;;;;;;13.23;63.23;99700.66;4995845;28;102523;-72
2022/04/06 04:59:09;;;;;;;14.07;10.20;;;;;;;13.35;62.70;99707.00;5000407;28;96912;-70
2022/04/06 05:01:36;;;;;;;15.23;9.88;;;;;;;13.57;61.99;99699.38;5004487;28;96762;-70
2022/04/06 05:04:03;;;;;;;17.73;11.18;;;;;;;13.51;62.05;99697.97;5001780;28;98904;-70
2022/04/06 05:06:30;;;;;;;14.88;10.65;;;;;;;13.42;62.33;99705.66;5003121;28;98128;-73
2022/04/06 05:08:57;;;;;;;13.98;10.52;;;;;;;13.29;62.68;99702.06;5000313;28;96923;-73
2022/04/06 05:11:23;;;;;;;20.92;11.18;;;;;;;13.17;63.26;99703.69;4997643;28;97890;-71
2022/04/06 05:13:49;;;;;;;14.93;10.30;;;;;;;13.55;61.90;99696.81;5004096;28;101466;-70
2022/04/06 05:16:16;;;;;;;15.90;10.57;;;;;;;13.52;61.83;99701.47;5004165;28;100281;-72
2022/04/06 05:18:43;;;;;;;15.52;10.43;;;;;;;13.19;62.52;99715.06;4998289;28;97242;-71
2022/04/06 05:21:11;;;;;;;20.33;10.93;;;;;;;13.28;62.84;99713.63;5000319;28;96836;-71
2022/04/06 05:23:37;;;;;;;14.05;10.27;;;;;;;13.40;62.13;99712.84;5006332;28;99583;-70
2022/04/06 05:26:04;;;;;;;15.07;9.75;;;;;;;13.47;61.93;99714.16;4999711;28;99862;-71
2022/04/06 05:28:32;;;;;;;17.40;10.43;;;;;;;13.39;62.06;99706.69;5000917;28;96942;-70
2022/04/06 05:30:59;;;;;;;20.55;11.02;;;;;;;13.40;61.88;99712.84;4993744;28;97286;-71
2022/04/06 05:33:25;;;;;;;14.60;9.52;;;;;;;13.50;61.48;99714.84;5004028;28;98964;-71
2022/04/06 05:35:52;;;;;;;15.20;9.55;;;;;;;13.03;63.13;99714.28;4995108;28;97522;-70
2022/04/06 05:38:19;;;;;;;12.68;9.77;;;;;;;13.35;62.21;99715.81;4998259;28;99276;-69
2022/04/06 05:40:46;;;;;;;19.52;10.60;;;;;;;13.22;62.13;99716.66;4995772;28;97470;-70
2022/04/06 05:43:14;;;;;;;16.50;9.80;;;;;;;13.56;61.52;99713.59;4998791;28;97787;-72
2022/04/06 05:45:40;;;;;;;18.02;10.20;;;;;;;13.89;60.32;99711.41;4999208;28;97825;-70
2022/04/06 05:48:08;;;;;;;16.15;10.30;;;;;;;13.66;60.78;99722.66;5002056;28;97545;-70
2022/04/06 05:50:35;;;;;;;14.40;9.75;;;;;;;13.55;61.27;99725.16;5007083;28;97005;-70
2022/04/06 05:53:01;;;;;;;18.40;9.52;;;;;;;13.81;60.35;99723.47;5000145;28;99052;-71
2022/04/06 05:55:29;;;;;;;14.45;9.25;;;;;;;13.25;61.57;99719.13;5003992;28;96811;-69
2022/04/06 05:57:56;;;;;;;15.48;10.23;;;;;;;13.76;60.49;99726.44;5001637;28;98576;-71
2022/04/06 06:00:22;;;;;;;16.77;10.30;;;;;;;13.95;59.43;99724.28;4997199;28;96913;-70
2022/04/06 06:02:51;;;;;;;19.80;11.07;;;;;;;13.91;60.17;99736.03;4999958;28;98902;-71
2022/04/06 06:05:17;;;;;;;20.17;9.85;;;;;;;13.98;59.98;99730.38;4999164;28;99014;-70
2022/04/06 06:07:44;;;;;;;19.30;10.52;;;;;;;13.78;60.63;99735.16;4999695;28;97007;-69
2022/04/06 06:10:12;;;;;;;24.52;11.63;;;;;;;13.76;60.69;99731.75;4996509;28;97642;-71
2022/04/06 06:12:40;;;;;;;16.95;10.02;;;;;;;13.72;61.13;99742.69;5004131;28;98981;-70
2022/04/06 06:15:07;;;;;;;17.67;10.57;;;;;;;13.98;60.46;99742.66;4997044;28;98920;-69
2022/04/06 06:17:37;;;;;;;18.95;10.82;;;;;;;13.83;60.67;99741.03;4999358;28;97779;-70
2022/04/06 06:20:04;;;;;;;19.55;10.13;;;;;;;13.51;61.13;99735.13;5002109;28;97203;-69
2022/04/06 06:22:31;;;;;;;18.63;11.50;;;;;;;13.53;61.72;99737.66;4999721;28;99398;-71
2022/04/06 06:25:00;;;;;;;20.77;11.85;;;;;;;13.85;61.24;99739.09;5002767;28;98846;-72
2022/04/06 06:27:27;;;;;;;28.98;14.15;;;;;;;13.96;61.48;99733.97;4999760;28;96900;-70
2022/04/06 06:29:54;;;;;;;27.60;13.82;;;;;;;14.06;60.97;99728.03;4996922;28;97304;-70
2022/04/06 06:32:21;;;;;;;143.73;19.95;;;;;;;14.50;60.02;99727.78;5000577;28;97839;-72
2022/04/06 06:34:47;;;;;;;31.50;15.00;;;;;;;14.28;60.36;99726.53;5004963;28;100483;-71
2022/04/06 06:37:14;;;;;;;28.90;15.05;;;;;;;14.40;60.31;99719.56;4995043;28;97015;-71
2022/04/06 06:39:41;;;;;;;26.63;14.30;;;;;;;14.55;59.45;99726.50;4993056;28;97532;-72
2022/04/06 06:42:08;;;;;;;21.48;13.48;;;;;;;14.75;58.89;99730.47;4992212;28;97620;-70
2022/04/06 06:44:35;;;;;;;24.80;14.25;;;;;;;14.50;59.69;99739.28;4996921;28;98007;-70
2022/04/06 06:47:03;;;;;;;30.90;15.05;;;;;;;14.70;59.11;99736.09;4998565;28;96919;-72
2022/04/06 06:49:30;;;;;;;28.02;15.68;;;;;;;14.73;59.17;99727.91;4989772;28;96999;-69
2022/04/06 06:51:57;;;;;;;27.35;15.38;;;;;;;14.75;58.60;99728.66;4996615;28;98922;-71
2022/04/06 06:54:23;;;;;;;25.52;16.08;;;;;;;14.57;58.79;99729.91;5001795;28;101084;-70
2022/04/06 06:56:50;;;;;;;25.65;16.05;;;;;;;14.47;59.05;99726.16;5000738;28;97787;-70
2022/04/06 06:59:16;;;;;;;21.10;15.43;;;;;;;14.58;58.94;99728.09;5005519;28;96836;-72
2022/04/06 07:01:46;;;;;;;24.58;15.73;;;;;;;14.84;58.13;99729.81;4999031;28;99194;-71
2022/04/06 07:04:16;;;;;;;26.60;16.08;;;;;;;14.37;59.14;99725.06;4997525;28;97946;-70
2022/04/06 07:06:43;;;;;;;32.35;16.92;;;;;;;14.35;59.19;99722.50;4998047;28;97169;-70
2022/04/06 07:09:10;;;;;;;25.90;16.73;;;;;;;14.37;59.19;99730.38;5003373;28;98059;-71
2022/04/06 07:11:36;;;;;;;32.05;17.17;;;;;;;13.81;60.95;99719.03;4987438;28;98156;-71
2022/04/06 07:14:03;;;;;;;31.60;17.45;;;;;;;14.59;58.65;99713.84;4989725;28;98833;-71
2022/04/06 07:16:30;;;;;;;29.15;17.05;;;;;;;15.07;56.99;99712.28;4999145;28;98053;-70
2022/04/06 07:18:56;;;;;;;29.25;18.00;;;;;;;14.61;57.52;99718.13;4992942;28;97569;-72
2022/04/06 07:21:25;;;;;;;30.30;18.02;;;;;;;14.70;57.48;99719.31;5000117;28;98897;-70
2022/04/06 07:23:53;;;;;;;34.38;18.13;;;;;;;14.64;57.37;99709.91;4997520;28;101894;-71
2022/04/06 07:26:20;;;;;;;29.55;16.35;;;;;;;14.97;56.82;99716.53;5003608;28;96750;-70
2022/04/06 07:28:47;;;;;;;32.35;17.08;;;;;;;14.77;56.84;99712.59;4998244;28;97498;-70
2022/04/06 07:31:17;;;;;;;30.83;16.52;;;;;;;15.14;55.80;99702.91;5004414;28;98306;-70
2022/04/06 07:33:44;;;;;;;26.83;15.52;;;;;;;15.04;55.20;99691.19;4999843;28;100096;-71
2022/04/06 07:36:11;;;;;;;29.90;16.02;;;;;;;15.20;54.79;99702.47;4996806;28;96887;-74
2022/04/06 07:38:39;;;;;;;30.83;15.13;;;;;;;15.17;54.40;99686.69;4997530;28;96999;-71
2022/04/06 07:41:06;;;;;;;28.17;15.60;;;;;;;15.29;54.39;99685.84;4995799;28;97630;-73
2022/04/06 07:43:33;;;;;;;22.17;13.80;;;;;;;15.47;53.77;99695.19;4998839;28;101512;-70
2022/04/06 07:45:59;;;;;;;24.83;15.00;;;;;;;14.99;54.56;99701.31;5003357;28;97693;-71
2022/04/06 07:48:27;;;;;;;27.95;14.93;;;;;;;14.76;55.56;99700.28;5005270;28;97499;-72
2022/04/06 07:50:54;;;;;;;24.02;13.95;;;;;;;15.32;53.87;99690.94;4999124;28;99324;-70
2022/04/06 07:53:21;;;;;;;20.60;13.82;;;;;;;15.66;52.74;99696.53;5001838;28;102376;-70
2022/04/06 07:55:55;;;;;;;26.40;13.43;;;;;;;15.58;52.52;99704.22;4998954;28;97885;-71
2022/04/06 07:58:23;;;;;;;21.90;12.98;;;;;;;15.54;52.58;99685.81;5001703;28;97544;-71
2022/04/06 08:00:50;;;;;;;23.90;12.02;;;;;;;15.21;52.71;99693.53;5002084;28;101562;-71
2022/04/06 08:03:17;;;;;;;27.30;16.45;;;;;;;15.13;53.18;99701.19;4990615;28;101011;-71
2022/04/06 08:05:44;;;;;;;20.95;12.45;;;;;;;15.47;51.92;99691.66;4996078;28;97091;-70
2022/04/06 08:08:10;;;;;;;20.73;11.73;;;;;;;15.66;51.47;99699.19;4999063;28;97677;-71
2022/04/06 08:10:37;;;;;;;22.67;11.43;;;;;;;15.97;50.45;99690.66;4997795;28;99464;-71
2022/04/06 08:13:08;;;;;;;19.17;10.77;;;;;;;16.08;50.36;99685.34;4998989;28;99033;-73
2022/04/06 08:15:34;;;;;;;21.40;10.35;;;;;;;15.53;50.52;99691.25;4998199;28;96854;-71
2022/04/06 08:18:02;;;;;;;16.90;10.38;;;;;;;16.14;49.92;99692.91;5000875;28;97145;-71
2022/04/06 08:20:28;;;;;;;20.80;11.27;;;;;;;15.88;49.76;99688.69;5004375;28;98936;-71
2022/04/06 08:22:56;;;;;;;19.55;10.15;;;;;;;16.01;49.75;99684.16;4999747;28;99363;-71
2022/04/06 08:25:23;;;;;;;17.92;9.68;;;;;;;16.39;49.27;99693.72;4996679;28;96861;-72
2022/04/06 08:27:49;;;;;;;17.83;9.15;;;;;;;16.53;48.56;99683.72;4996936;28;97735;-71
2022/04/06 08:30:20;;;;;;;21.70;9.70;;;;;;;16.41;48.79;99697.13;4996759;28;99621;-72
2022/04/06 08:32:46;;;;;;;19.38;9.30;;;;;;;16.12;48.76;99686.84;4994657;28;98820;-74
2022/04/06 08:35:13;;;;;;;23.17;10.43;;;;;;;16.05;48.90;99704.25;4994934;28;97019;-70
2022/04/06 08:37:40;;;;;;;22.40;9.48;;;;;;;16.22;48.78;99703.84;4992559;28;98682;-71
2022/04/06 08:40:09;;;;;;;19.23;8.55;;;;;;;16.10;48.62;99703.91;4999687;28;98134;-71
2022/04/06 08:42:36;;;;;;;21.70;9.32;;;;;;;16.02;49.12;99711.59;4996860;28;100651;-72
2022/04/06 08:45:03;;;;;;;21.25;8.73;;;;;;;14.64;50.70;99696.63;4994091;28;99221;-72
2022/04/06 08:47:32;;;;;;;15.63;8.30;;;;;;;15.36;50.50;99705.72;4995400;28;96941;-74
2022/04/06 08:49:59;;;;;;;18.08;9.15;;;;;;;14.74;51.84;99696.84;4995258;28;99216;-70
2022/04/06 08:52:26;;;;;;;23.85;8.98;;;;;;;15.04;50.57;99701.84;4994073;28;98074;-70
2022/04/06 08:54:53;;;;;;;22.90;8.50;;;;;;;15.75;49.66;99710.00;4996469;28;97581;-70
2022/04/06 08:57:24;;;;;;;21.88;8.68;;;;;;;15.53;49.14;99696.56;4998581;28;96807;-72
2022/04/06 08:59:51;;;;;;;16.65;7.80;;;;;;;15.16;49.67;99685.84;5001017;28;100315;-71
2022/04/06 09:02:19;;;;;;;15.52;7.38;;;;;;;15.58;49.18;99690.91;5003169;28;98813;-70
2022/04/06 09:04:54;;;;;;;14.68;7.20;;;;;;;16.20;47.43;99694.28;5004631;28;97108;-70
2022/04/06 09:07:22;;;;;;;16.77;7.22;;;;;;;16.10;47.05;99701.25;5000464;28;98776;-72
2022/04/06 09:09:53;;;;;;;12.68;6.78;;;;;;;16.42;46.39;99694.31;4997881;28;99592;-72
2022/04/06 09:12:21;;;;;;;14.85;7.15;;;;;;;16.73;45.55;99685.72;5000208;28;99228;-71
2022/04/06 09:14:48;;;;;;;16.52;7.10;;;;;;;16.83;45.09;99688.50;4990411;28;97744;-70
2022/04/06 09:17:20;;;;;;;13.48;7.95;;;;;;;16.43;45.31;99687.19;4992404;28;97295;-70
2022/04/06 09:19:49;;;;;;;17.92;7.47;;;;;;;16.71;45.11;99687.66;4993739;28;100054;-72
2022/04/06 09:22:17;;;;;;;13.60;7.05;;;;;;;16.23;45.77;99688.69;4995763;28;98891;-71
2022/04/06 09:24:44;;;;;;;12.88;6.78;;;;;;;16.35;45.25;99691.28;4995697;28;97461;-71
2022/04/06 09:27:10;;;;;;;14.45;6.68;;;;;;;16.52;45.58;99687.34;4990647;28;98838;-71
2022/04/06 09:29:37;;;;;;;19.70;7.05;;;;;;;17.28;44.29;99684.03;4996047;28;99189;-71
2022/04/06 09:32:08;;;;;;;10.25;6.55;;;;;;;17.03;44.05;99677.13;4996874;28;98055;-70
2022/04/06 09:34:35;;;;;;;20.25;7.32;;;;;;;16.63;44.88;99670.53;4995571;28;96743;-71
2022/04/06 09:37:24;;;;;;;13.52;6.90;;;;;;;16.99;43.78;99667.69;4991933;28;97128;-72
2022/04/06 09:39:51;;;;;;;14.23;7.13;;;;;;;17.15;44.00;99672.63;4986557;28;100453;-71
2022/04/06 09:42:26;;;;;;;15.88;7.25;;;;;;;17.08;43.59;99671.41;4994716;28;100706;-71
2022/04/06 09:47:43;;;;;;;14.13;8.00;;;;;;;17.07;43.36;99670.56;4992763;28;97345;-71
2022/04/06 09:50:14;;;;;;;16.15;6.97;;;;;;;16.81;43.62;99674.44;4993320;28;98157;-72
2022/04/06 09:52:43;;;;;;;14.75;7.45;;;;;;;16.59;44.01;99661.06;4998595;28;97617;-70
2022/04/06 09:55:11;;;;;;;15.02;7.97;;;;;;;16.44;44.53;99655.06;4995087;28;98845;-71
2022/04/06 09:57:42;;;;;;;17.60;7.75;;;;;;;16.53;44.21;99662.38;4993960;28;100474;-70
2022/04/06 10:00:11;;;;;;;16.90;7.95;;;;;;;16.77;43.63;99667.66;4994748;28;99007;-70
2022/04/06 10:02:38;;;;;;;15.00;7.68;;;;;;;16.89;43.34;99661.34;4995248;28;100196;-69
2022/04/06 10:05:06;;;;;;;18.52;7.15;;;;;;;17.12;43.12;99656.88;4994994;28;97248;-70
2022/04/06 10:07:34;;;;;;;13.38;6.95;;;;;;;16.75;43.35;99666.91;4995705;28;97718;-70
2022/04/06 10:10:02;;;;;;;12.63;7.18;;;;;;;17.21;42.57;99655.28;4990929;28;99444;-71
2022/04/06 10:12:29;;;;;;;14.00;8.32;;;;;;;17.50;41.94;99659.13;4991900;28;99457;-72
2022/04/06 10:14:57;;;;;;;14.77;7.30;;;;;;;17.69;41.86;99650.50;4993576;28;97939;-69
2022/04/06 10:17:26;;;;;;;14.02;7.80;;;;;;;17.38;42.47;99658.31;4993540;28;98115;-70
2022/04/06 10:20:04;;;;;;;15.13;7.70;;;;;;;17.02;43.20;99654.06;4998270;28;98768;-71
2022/04/06 10:22:36;;;;;;;15.20;8.07;;;;;;;16.77;43.77;99650.78;4992186;28;97158;-71
2022/04/06 10:25:11;;;;;;;17.88;8.20;;;;;;;16.90;43.75;99655.06;4989990;28;97836;-70
2022/04/06 10:27:42;;;;;;;16.60;7.32;;;;;;;16.25;44.75;99652.97;4999915;28;97221;-71
2022/04/06 10:30:15;;;;;;;17.27;7.85;;;;;;;16.34;45.09;99652.25;4992225;28;102265;-70
2022/04/06 10:32:43;;;;;;;19.60;7.82;;;;;;;16.67;44.25;99651.50;4992548;28;99037;-70
2022/04/06 10:35:21;;;;;;;15.50;7.47;;;;;;;16.91;43.83;99646.09;4989511;28;98098;-72
2022/04/06 10:37:53;;;;;;;15.90;7.22;;;;;;;17.29;42.81;99637.69;4992924;28;97727;-72
2022/04/06 10:40:22;;;;;;;16.52;6.90;;;;;;;17.26;42.92;99643.28;4990498;28;100369;-71
2022/04/06 10:42:49;;;;;;;19.42;7.57;;;;;;;16.89;43.33;99640.00;4997732;28;98246;-72
2022/04/06 10:45:35;;;;;;;13.85;6.88;;;;;;;17.20;42.52;99632.25;4986924;28;98759;-71
2022/04/06 10:48:18;;;;;;;14.20;7.47;;;;;;;17.50;41.94;99643.13;4992435;28;97749;-70
2022/04/06 10:50:47;;;;;;;15.85;7.40;;;;;;;17.66;41.70;99630.22;4991981;28;101347;-70
2022/04/06 10:53:28;;;;;;;18.33;7.10;;;;;;;17.64;40.59;99631.34;4993456;28;98905;-70
2022/04/06 10:56:02;;;;;;;13.85;6.28;;;;;;;17.89;40.23;99628.34;4996744;28;96875;-71
2022/04/06 10:58:30;;;;;;;17.65;6.13;;;;;;;17.58;40.49;99635.34;4990481;28;97501;-69
2022/04/06 11:01:16;;;;;;;15.75;6.60;;;;;;;17.90;39.54;99633.56;4994799;28;99267;-71
2022/04/06 11:03:56;;;;;;;8.57;5.55;;;;;;;17.56;40.35;99633.75;4997635;28;97869;-71
2022/04/06 11:06:56;;;;;;;16.33;6.75;;;;;;;17.08;40.93;99629.56;5000933;28;97163;-74
2022/04/06 11:12:14;;;;;;;15.98;6.38;;;;;;;16.46;41.98;99641.63;5000259;28;97151;-69
2022/04/06 11:14:41;;;;;;;14.27;6.43;;;;;;;16.21;42.49;99643.50;4993255;28;97805;-71
2022/04/06 11:20:20;;;;;;;15.27;7.32;;;;;;;16.50;42.49;99635.09;4998103;28;97559;-70
2022/04/06 11:22:55;;;;;;;13.57;5.88;;;;;;;16.75;42.08;99640.25;4992227;28;101152;-70
2022/04/06 11:25:26;;;;;;;10.75;6.75;;;;;;;16.52;42.32;99635.81;4993077;28;101371;-69
2022/04/06 11:27:56;;;;;;;15.18;6.18;;;;;;;16.58;42.61;99636.19;4992874;28;97168;-70
2022/04/06 11:30:26;;;;;;;13.05;6.03;;;;;;;16.55;43.34;99640.91;4997874;28;97060;-72
2022/04/06 11:32:54;;;;;;;16.05;6.43;;;;;;;16.12;43.64;99633.53;4995915;28;99792;-70
2022/04/06 11:35:27;;;;;;;14.30;7.55;;;;;;;16.73;42.88;99635.06;4998314;28;98723;-70